sensor_id;sensor_type;location;lat;lon;timestamp;P1;durP1;ratioP1;P2;durP2;ratioP2
21000;SDS011;10658;50.920;12.238;2024-01-15T00:02:34;11.38;;;6.15;;
21000;SDS011;10658;50.920;12.238;2024-01-15T00:06:35;14.57;;;5.72;;
21000;SDS011;10658;50.920;12.238;2024-01-15T00:10:36;11.98;;;5.97;;
21000;SDS011;10658;50.920;12.238;2024-01-15T00:14:37;10.95;;;4.68;;
21000;SDS011;10658;50.920;12.238;2024-01-15T00:18:38;11.68;;;5.50;;
21000;SDS011;10658;50.920;12.238;2024-01-15T00:22:39;15.40;;;5.50;;
21000;SDS011;10658;50.920;12.238;2024-01-15T00:26:40;11.77;;;5.88;;
21000;SDS011;10658;50.920;12.238;2024-01-15T00:30:40;12.45;;;5.55;;
21000;SDS011;10658;50.920;12.238;2024-01-15T00:34:41;12.00;;;5.93;;
21000;SDS011;10658;50.920;12.238;2024-01-15T00:38:43;14.70;;;5.85;;
21000;SDS011;10658;50.920;12.238;2024-01-15T00:42:44;11.77;;;5.88;;
21000;SDS011;10658;50.920;12.238;2024-01-15T00:46:45;14.00;;;6.82;;
21000;SDS011;10658;50.920;12.238;2024-01-15T00:50:46;9.77;;;5.68;;
21000;SDS011;10658;50.920;12.238;2024-01-15T00:54:47;12.00;;;5.80;;
21000;SDS011;10658;50.920;12.238;2024-01-15T00:58:48;11.95;;;5.50;;
21000;SDS011;10658;50.920;12.238;2024-01-15T01:02:48;12.75;;;6.43;;
21000;SDS011;10658;50.920;12.238;2024-01-15T01:06:49;12.25;;;5.97;;
21000;SDS011;10658;50.920;12.238;2024-01-15T01:10:50;13.05;;;6.07;;
21000;SDS011;10658;50.920;12.238;2024-01-15T01:14:51;14.07;;;5.53;;
21000;SDS011;10658;50.920;12.238;2024-01-15T01:18:54;9.00;;;6.18;;
21000;SDS011;10658;50.920;12.238;2024-01-15T01:22:55;11.70;;;6.85;;
21000;SDS011;10658;50.920;12.238;2024-01-15T01:26:55;16.08;;;5.97;;
21000;SDS011;10658;50.920;12.238;2024-01-15T01:30:56;12.82;;;6.18;;
21000;SDS011;10658;50.920;12.238;2024-01-15T01:34:57;12.50;;;5.50;;
21000;SDS011;10658;50.920;12.238;2024-01-15T01:38:58;13.18;;;5.50;;
21000;SDS011;10658;50.920;12.238;2024-01-15T01:42:59;14.32;;;6.35;;
21000;SDS011;10658;50.920;12.238;2024-01-15T01:46:59;12.27;;;6.43;;
21000;SDS011;10658;50.920;12.238;2024-01-15T01:51:02;11.60;;;6.03;;
21000;SDS011;10658;50.920;12.238;2024-01-15T01:55:04;10.15;;;5.85;;
21000;SDS011;10658;50.920;12.238;2024-01-15T01:59:10;10.48;;;6.47;;
21000;SDS011;10658;50.920;12.238;2024-01-15T02:03:11;12.00;;;5.70;;
21000;SDS011;10658;50.920;12.238;2024-01-15T02:07:12;9.07;;;5.28;;
21000;SDS011;10658;50.920;12.238;2024-01-15T02:11:13;12.85;;;6.00;;
21000;SDS011;10658;50.920;12.238;2024-01-15T02:15:14;10.90;;;5.93;;
21000;SDS011;10658;50.920;12.238;2024-01-15T02:19:18;9.75;;;4.40;;
21000;SDS011;10658;50.920;12.238;2024-01-15T02:23:18;15.23;;;6.93;;
21000;SDS011;10658;50.920;12.238;2024-01-15T02:27:19;12.18;;;6.70;;
21000;SDS011;10658;50.920;12.238;2024-01-15T02:31:20;10.15;;;5.45;;
21000;SDS011;10658;50.920;12.238;2024-01-15T02:35:21;10.05;;;5.70;;
21000;SDS011;10658;50.920;12.238;2024-01-15T02:39:22;12.93;;;6.07;;
21000;SDS011;10658;50.920;12.238;2024-01-15T02:43:23;13.55;;;6.45;;
21000;SDS011;10658;50.920;12.238;2024-01-15T02:47:23;13.88;;;6.55;;
21000;SDS011;10658;50.920;12.238;2024-01-15T02:51:24;11.40;;;5.55;;
21000;SDS011;10658;50.920;12.238;2024-01-15T02:55:25;12.63;;;3.88;;
21000;SDS011;10658;50.920;12.238;2024-01-15T02:59:25;11.82;;;4.95;;
21000;SDS011;10658;50.920;12.238;2024-01-15T03:03:26;12.93;;;6.55;;
21000;SDS011;10658;50.920;12.238;2024-01-15T03:07:28;13.10;;;5.55;;
21000;SDS011;10658;50.920;12.238;2024-01-15T03:11:29;15.40;;;7.95;;
21000;SDS011;10658;50.920;12.238;2024-01-15T03:15:29;12.73;;;5.80;;
21000;SDS011;10658;50.920;12.238;2024-01-15T03:19:30;12.50;;;6.28;;
21000;SDS011;10658;50.920;12.238;2024-01-15T03:23:31;12.50;;;6.55;;
21000;SDS011;10658;50.920;12.238;2024-01-15T03:27:31;14.45;;;6.13;;
21000;SDS011;10658;50.920;12.238;2024-01-15T03:31:33;12.63;;;6.43;;
21000;SDS011;10658;50.920;12.238;2024-01-15T03:35:34;13.85;;;6.50;;
21000;SDS011;10658;50.920;12.238;2024-01-15T03:39:34;13.25;;;7.22;;
21000;SDS011;10658;50.920;12.238;2024-01-15T03:43:35;12.50;;;5.40;;
21000;SDS011;10658;50.920;12.238;2024-01-15T03:47:36;12.52;;;6.05;;
21000;SDS011;10658;50.920;12.238;2024-01-15T03:51:37;14.73;;;6.53;;
21000;SDS011;10658;50.920;12.238;2024-01-15T03:55:37;7.95;;;5.30;;
21000;SDS011;10658;50.920;12.238;2024-01-15T03:59:40;16.02;;;7.53;;
21000;SDS011;10658;50.920;12.238;2024-01-15T04:03:41;15.15;;;6.20;;
21000;SDS011;10658;50.920;12.238;2024-01-15T04:07:43;13.00;;;5.35;;
21000;SDS011;10658;50.920;12.238;2024-01-15T04:11:43;11.93;;;5.80;;
21000;SDS011;10658;50.920;12.238;2024-01-15T04:15:44;14.20;;;6.88;;
21000;SDS011;10658;50.920;12.238;2024-01-15T04:19:45;11.23;;;5.75;;
21000;SDS011;10658;50.920;12.238;2024-01-15T04:23:45;11.65;;;6.38;;
21000;SDS011;10658;50.920;12.238;2024-01-15T04:27:46;9.77;;;5.68;;
21000;SDS011;10658;50.920;12.238;2024-01-15T04:31:47;10.48;;;5.70;;
21000;SDS011;10658;50.920;12.238;2024-01-15T04:35:48;10.13;;;5.32;;
21000;SDS011;10658;50.920;12.238;2024-01-15T04:39:49;14.02;;;7.18;;
21000;SDS011;10658;50.920;12.238;2024-01-15T04:43:53;16.67;;;6.68;;
21000;SDS011;10658;50.920;12.238;2024-01-15T04:47:54;12.75;;;5.90;;
21000;SDS011;10658;50.920;12.238;2024-01-15T04:51:57;15.38;;;6.50;;
21000;SDS011;10658;50.920;12.238;2024-01-15T04:55:57;15.65;;;6.18;;
21000;SDS011;10658;50.920;12.238;2024-01-15T04:59:58;13.32;;;6.05;;
21000;SDS011;10658;50.920;12.238;2024-01-15T05:03:59;16.08;;;7.30;;
21000;SDS011;10658;50.920;12.238;2024-01-15T05:08:00;9.95;;;4.75;;
21000;SDS011;10658;50.920;12.238;2024-01-15T05:12:01;12.32;;;6.03;;
21000;SDS011;10658;50.920;12.238;2024-01-15T05:16:02;9.05;;;4.68;;
21000;SDS011;10658;50.920;12.238;2024-01-15T05:20:03;7.43;;;3.72;;
21000;SDS011;10658;50.920;12.238;2024-01-15T05:24:04;7.50;;;3.75;;
21000;SDS011;10658;50.920;12.238;2024-01-15T05:28:05;10.77;;;4.63;;
21000;SDS011;10658;50.920;12.238;2024-01-15T05:32:06;9.32;;;4.97;;
21000;SDS011;10658;50.920;12.238;2024-01-15T05:36:07;3.13;;;2.15;;
21000;SDS011;10658;50.920;12.238;2024-01-15T05:40:08;7.75;;;4.38;;
21000;SDS011;10658;50.920;12.238;2024-01-15T05:44:09;6.28;;;2.90;;
21000;SDS011;10658;50.920;12.238;2024-01-15T05:48:10;8.73;;;4.60;;
21000;SDS011;10658;50.920;12.238;2024-01-15T05:52:11;8.10;;;4.03;;
21000;SDS011;10658;50.920;12.238;2024-01-15T05:56:12;7.25;;;4.30;;
21000;SDS011;10658;50.920;12.238;2024-01-15T06:00:13;7.63;;;4.45;;
21000;SDS011;10658;50.920;12.238;2024-01-15T06:04:14;7.43;;;3.83;;
21000;SDS011;10658;50.920;12.238;2024-01-15T06:08:15;7.30;;;4.22;;
21000;SDS011;10658;50.920;12.238;2024-01-15T06:12:15;9.57;;;3.88;;
21000;SDS011;10658;50.920;12.238;2024-01-15T06:16:17;5.43;;;3.58;;
21000;SDS011;10658;50.920;12.238;2024-01-15T06:20:20;6.18;;;3.90;;
21000;SDS011;10658;50.920;12.238;2024-01-15T06:24:21;9.20;;;3.67;;
21000;SDS011;10658;50.920;12.238;2024-01-15T06:28:22;5.13;;;3.63;;
21000;SDS011;10658;50.920;12.238;2024-01-15T06:32:22;7.22;;;4.20;;
21000;SDS011;10658;50.920;12.238;2024-01-15T06:36:23;9.52;;;4.65;;
21000;SDS011;10658;50.920;12.238;2024-01-15T06:40:24;9.88;;;4.70;;
21000;SDS011;10658;50.920;12.238;2024-01-15T06:44:25;8.93;;;4.88;;
21000;SDS011;10658;50.920;12.238;2024-01-15T06:48:25;11.43;;;5.55;;
21000;SDS011;10658;50.920;12.238;2024-01-15T06:52:26;10.63;;;4.40;;
21000;SDS011;10658;50.920;12.238;2024-01-15T06:56:27;8.38;;;4.28;;
21000;SDS011;10658;50.920;12.238;2024-01-15T07:00:28;8.65;;;4.78;;
21000;SDS011;10658;50.920;12.238;2024-01-15T07:04:29;9.57;;;4.53;;
21000;SDS011;10658;50.920;12.238;2024-01-15T07:08:29;7.25;;;4.30;;
21000;SDS011;10658;50.920;12.238;2024-01-15T07:12:30;10.73;;;5.00;;
21000;SDS011;10658;50.920;12.238;2024-01-15T07:16:31;8.27;;;4.45;;
21000;SDS011;10658;50.920;12.238;2024-01-15T07:20:31;9.55;;;4.68;;
21000;SDS011;10658;50.920;12.238;2024-01-15T07:24:32;8.73;;;4.78;;
21000;SDS011;10658;50.920;12.238;2024-01-15T07:28:35;7.70;;;4.05;;
21000;SDS011;10658;50.920;12.238;2024-01-15T07:32:36;12.02;;;4.10;;
21000;SDS011;10658;50.920;12.238;2024-01-15T07:36:37;6.20;;;3.15;;
21000;SDS011;10658;50.920;12.238;2024-01-15T07:40:38;9.35;;;4.93;;
21000;SDS011;10658;50.920;12.238;2024-01-15T07:44:38;7.90;;;3.60;;
21000;SDS011;10658;50.920;12.238;2024-01-15T07:48:39;8.00;;;4.15;;
21000;SDS011;10658;50.920;12.238;2024-01-15T07:52:41;10.40;;;3.95;;
21000;SDS011;10658;50.920;12.238;2024-01-15T07:56:55;10.27;;;4.70;;
21000;SDS011;10658;50.920;12.238;2024-01-15T08:00:57;7.38;;;3.58;;
21000;SDS011;10658;50.920;12.238;2024-01-15T08:04:58;6.93;;;2.53;;
21000;SDS011;10658;50.920;12.238;2024-01-15T08:08:58;10.75;;;3.85;;
21000;SDS011;10658;50.920;12.238;2024-01-15T08:12:59;5.72;;;3.60;;
21000;SDS011;10658;50.920;12.238;2024-01-15T08:17:00;7.20;;;4.57;;
21000;SDS011;10658;50.920;12.238;2024-01-15T08:21:01;6.80;;;3.67;;
21000;SDS011;10658;50.920;12.238;2024-01-15T08:25:03;6.50;;;3.75;;
21000;SDS011;10658;50.920;12.238;2024-01-15T08:29:04;7.47;;;4.55;;
21000;SDS011;10658;50.920;12.238;2024-01-15T08:33:05;8.57;;;4.35;;
21000;SDS011;10658;50.920;12.238;2024-01-15T08:37:06;7.25;;;3.15;;
21000;SDS011;10658;50.920;12.238;2024-01-15T08:41:10;7.57;;;3.25;;
21000;SDS011;10658;50.920;12.238;2024-01-15T08:45:11;5.25;;;3.30;;
21000;SDS011;10658;50.920;12.238;2024-01-15T08:49:12;7.78;;;3.63;;
21000;SDS011;10658;50.920;12.238;2024-01-15T08:53:13;8.20;;;2.90;;
21000;SDS011;10658;50.920;12.238;2024-01-15T08:57:14;6.43;;;3.47;;
21000;SDS011;10658;50.920;12.238;2024-01-15T09:01:15;10.35;;;3.97;;
21000;SDS011;10658;50.920;12.238;2024-01-15T09:05:16;6.03;;;3.53;;
21000;SDS011;10658;50.920;12.238;2024-01-15T09:09:17;4.88;;;2.60;;
21000;SDS011;10658;50.920;12.238;2024-01-15T09:13:18;8.73;;;3.97;;
21000;SDS011;10658;50.920;12.238;2024-01-15T09:17:19;7.85;;;2.97;;
21000;SDS011;10658;50.920;12.238;2024-01-15T09:21:22;7.47;;;3.90;;
21000;SDS011;10658;50.920;12.238;2024-01-15T09:25:22;7.07;;;3.95;;
21000;SDS011;10658;50.920;12.238;2024-01-15T09:29:23;3.88;;;2.40;;
21000;SDS011;10658;50.920;12.238;2024-01-15T09:33:24;3.28;;;1.90;;
21000;SDS011;10658;50.920;12.238;2024-01-15T09:37:25;8.02;;;4.05;;
21000;SDS011;10658;50.920;12.238;2024-01-15T09:41:25;5.97;;;3.45;;
21000;SDS011;10658;50.920;12.238;2024-01-15T09:45:26;6.75;;;3.45;;
21000;SDS011;10658;50.920;12.238;2024-01-15T09:49:28;5.22;;;3.35;;
21000;SDS011;10658;50.920;12.238;2024-01-15T09:53:29;5.85;;;3.38;;
21000;SDS011;10658;50.920;12.238;2024-01-15T09:57:31;8.50;;;3.63;;
21000;SDS011;10658;50.920;12.238;2024-01-15T10:01:32;6.90;;;3.15;;
21000;SDS011;10658;50.920;12.238;2024-01-15T10:05:37;6.40;;;2.80;;
21000;SDS011;10658;50.920;12.238;2024-01-15T10:09:38;3.92;;;2.03;;
21000;SDS011;10658;50.920;12.238;2024-01-15T10:13:39;7.45;;;3.90;;
21000;SDS011;10658;50.920;12.238;2024-01-15T10:17:41;8.98;;;3.85;;
21000;SDS011;10658;50.920;12.238;2024-01-15T10:21:42;7.57;;;3.63;;
21000;SDS011;10658;50.920;12.238;2024-01-15T10:25:43;5.32;;;3.65;;
21000;SDS011;10658;50.920;12.238;2024-01-15T10:29:43;4.07;;;2.00;;
21000;SDS011;10658;50.920;12.238;2024-01-15T10:33:44;6.38;;;3.15;;
21000;SDS011;10658;50.920;12.238;2024-01-15T10:37:45;7.95;;;3.35;;
21000;SDS011;10658;50.920;12.238;2024-01-15T10:41:49;4.45;;;2.25;;
21000;SDS011;10658;50.920;12.238;2024-01-15T10:45:53;6.57;;;3.00;;
21000;SDS011;10658;50.920;12.238;2024-01-15T10:49:55;9.85;;;4.35;;
21000;SDS011;10658;50.920;12.238;2024-01-15T10:53:56;4.28;;;2.90;;
21000;SDS011;10658;50.920;12.238;2024-01-15T10:57:59;4.22;;;2.58;;
21000;SDS011;10658;50.920;12.238;2024-01-15T11:02:01;5.05;;;2.85;;
21000;SDS011;10658;50.920;12.238;2024-01-15T11:06:15;7.72;;;3.20;;
21000;SDS011;10658;50.920;12.238;2024-01-15T11:14:46;8.65;;;2.63;;
21000;SDS011;10658;50.920;12.238;2024-01-15T11:22:58;4.57;;;2.90;;
21000;SDS011;10658;50.920;12.238;2024-01-15T11:26:59;7.18;;;2.67;;
21000;SDS011;10658;50.920;12.238;2024-01-15T11:31:00;6.55;;;3.05;;
21000;SDS011;10658;50.920;12.238;2024-01-15T11:35:05;6.70;;;3.45;;
21000;SDS011;10658;50.920;12.238;2024-01-15T11:43:30;4.90;;;2.20;;
21000;SDS011;10658;50.920;12.238;2024-01-15T11:51:53;6.75;;;2.60;;
21000;SDS011;10658;50.920;12.238;2024-01-15T11:55:58;6.13;;;3.03;;
21000;SDS011;10658;50.920;12.238;2024-01-15T12:00:03;6.22;;;2.85;;
21000;SDS011;10658;50.920;12.238;2024-01-15T12:04:12;6.93;;;3.70;;
21000;SDS011;10658;50.920;12.238;2024-01-15T12:08:20;5.70;;;2.55;;
21000;SDS011;10658;50.920;12.238;2024-01-15T12:12:24;5.38;;;2.78;;
21000;SDS011;10658;50.920;12.238;2024-01-15T12:16:47;7.03;;;3.15;;
21000;SDS011;10658;50.920;12.238;2024-01-15T12:20:48;5.25;;;2.67;;
21000;SDS011;10658;50.920;12.238;2024-01-15T12:24:48;4.13;;;2.67;;
21000;SDS011;10658;50.920;12.238;2024-01-15T12:28:50;4.53;;;2.78;;
21000;SDS011;10658;50.920;12.238;2024-01-15T12:32:51;3.90;;;2.30;;
21000;SDS011;10658;50.920;12.238;2024-01-15T12:36:52;5.57;;;2.58;;
21000;SDS011;10658;50.920;12.238;2024-01-15T12:40:53;5.95;;;2.80;;
21000;SDS011;10658;50.920;12.238;2024-01-15T12:44:55;3.00;;;2.03;;
21000;SDS011;10658;50.920;12.238;2024-01-15T12:48:57;2.88;;;2.53;;
21000;SDS011;10658;50.920;12.238;2024-01-15T12:52:58;4.97;;;2.60;;
21000;SDS011;10658;50.920;12.238;2024-01-15T12:57:02;4.05;;;2.33;;
21000;SDS011;10658;50.920;12.238;2024-01-15T13:01:03;3.72;;;2.10;;
21000;SDS011;10658;50.920;12.238;2024-01-15T13:05:04;3.58;;;1.85;;
21000;SDS011;10658;50.920;12.238;2024-01-15T13:09:07;4.00;;;2.15;;
21000;SDS011;10658;50.920;12.238;2024-01-15T13:13:10;2.50;;;1.98;;
21000;SDS011;10658;50.920;12.238;2024-01-15T13:17:11;3.45;;;1.92;;
21000;SDS011;10658;50.920;12.238;2024-01-15T13:21:15;4.18;;;2.00;;
21000;SDS011;10658;50.920;12.238;2024-01-15T13:25:17;3.72;;;1.92;;
21000;SDS011;10658;50.920;12.238;2024-01-15T13:29:18;3.00;;;1.88;;
21000;SDS011;10658;50.920;12.238;2024-01-15T13:33:19;2.20;;;1.60;;
21000;SDS011;10658;50.920;12.238;2024-01-15T13:37:20;5.47;;;3.00;;
21000;SDS011;10658;50.920;12.238;2024-01-15T13:41:21;4.38;;;2.17;;
21000;SDS011;10658;50.920;12.238;2024-01-15T13:45:25;6.60;;;1.98;;
21000;SDS011;10658;50.920;12.238;2024-01-15T13:49:25;4.50;;;2.78;;
21000;SDS011;10658;50.920;12.238;2024-01-15T13:53:26;11.20;;;3.80;;
21000;SDS011;10658;50.920;12.238;2024-01-15T13:57:27;6.00;;;3.10;;
21000;SDS011;10658;50.920;12.238;2024-01-15T14:01:28;5.10;;;2.58;;
21000;SDS011;10658;50.920;12.238;2024-01-15T14:05:29;7.03;;;3.78;;
21000;SDS011;10658;50.920;12.238;2024-01-15T14:09:29;5.28;;;2.50;;
21000;SDS011;10658;50.920;12.238;2024-01-15T14:13:32;6.93;;;2.90;;
21000;SDS011;10658;50.920;12.238;2024-01-15T14:17:33;4.88;;;3.17;;
21000;SDS011;10658;50.920;12.238;2024-01-15T14:21:34;7.53;;;3.08;;
21000;SDS011;10658;50.920;12.238;2024-01-15T14:25:35;4.53;;;2.88;;
21000;SDS011;10658;50.920;12.238;2024-01-15T14:29:36;6.97;;;2.75;;
21000;SDS011;10658;50.920;12.238;2024-01-15T14:33:37;6.68;;;3.30;;
21000;SDS011;10658;50.920;12.238;2024-01-15T14:37:38;5.53;;;3.28;;
21000;SDS011;10658;50.920;12.238;2024-01-15T14:41:38;4.10;;;2.60;;
21000;SDS011;10658;50.920;12.238;2024-01-15T14:45:39;7.38;;;3.47;;
21000;SDS011;10658;50.920;12.238;2024-01-15T14:49:40;5.35;;;3.13;;
21000;SDS011;10658;50.920;12.238;2024-01-15T14:53:42;4.25;;;3.13;;
21000;SDS011;10658;50.920;12.238;2024-01-15T14:57:44;6.10;;;3.63;;
21000;SDS011;10658;50.920;12.238;2024-01-15T15:01:44;6.05;;;3.47;;
21000;SDS011;10658;50.920;12.238;2024-01-15T15:05:45;7.68;;;3.20;;
21000;SDS011;10658;50.920;12.238;2024-01-15T15:09:46;7.20;;;3.35;;
21000;SDS011;10658;50.920;12.238;2024-01-15T15:13:51;8.50;;;3.55;;
21000;SDS011;10658;50.920;12.238;2024-01-15T15:17:52;8.18;;;4.20;;
21000;SDS011;10658;50.920;12.238;2024-01-15T15:21:52;7.50;;;3.90;;
21000;SDS011;10658;50.920;12.238;2024-01-15T15:25:53;7.22;;;4.10;;
21000;SDS011;10658;50.920;12.238;2024-01-15T15:29:54;7.25;;;3.45;;
21000;SDS011;10658;50.920;12.238;2024-01-15T15:33:55;9.52;;;4.60;;
21000;SDS011;10658;50.920;12.238;2024-01-15T15:37:56;10.88;;;3.83;;
21000;SDS011;10658;50.920;12.238;2024-01-15T15:41:57;7.68;;;3.80;;
21000;SDS011;10658;50.920;12.238;2024-01-15T15:45:57;6.22;;;3.55;;
21000;SDS011;10658;50.920;12.238;2024-01-15T15:49:58;11.05;;;3.65;;
21000;SDS011;10658;50.920;12.238;2024-01-15T15:53:59;6.43;;;4.00;;
21000;SDS011;10658;50.920;12.238;2024-01-15T15:58:02;7.68;;;4.28;;
21000;SDS011;10658;50.920;12.238;2024-01-15T16:02:03;7.35;;;3.90;;
21000;SDS011;10658;50.920;12.238;2024-01-15T16:06:04;8.73;;;5.05;;
21000;SDS011;10658;50.920;12.238;2024-01-15T16:10:05;8.20;;;4.13;;
21000;SDS011;10658;50.920;12.238;2024-01-15T16:14:06;7.93;;;3.40;;
21000;SDS011;10658;50.920;12.238;2024-01-15T16:18:07;5.90;;;3.20;;
21000;SDS011;10658;50.920;12.238;2024-01-15T16:22:08;5.72;;;3.75;;
21000;SDS011;10658;50.920;12.238;2024-01-15T16:26:12;4.18;;;3.20;;
21000;SDS011;10658;50.920;12.238;2024-01-15T16:30:13;9.63;;;4.30;;
21000;SDS011;10658;50.920;12.238;2024-01-15T16:34:14;4.05;;;2.38;;
21000;SDS011;10658;50.920;12.238;2024-01-15T16:38:14;5.07;;;2.63;;
21000;SDS011;10658;50.920;12.238;2024-01-15T16:42:15;7.97;;;3.92;;
21000;SDS011;10658;50.920;12.238;2024-01-15T16:46:16;4.35;;;2.45;;
21000;SDS011;10658;50.920;12.238;2024-01-15T16:50:17;7.00;;;2.97;;
21000;SDS011;10658;50.920;12.238;2024-01-15T16:54:18;4.93;;;2.40;;
21000;SDS011;10658;50.920;12.238;2024-01-15T16:58:19;7.13;;;3.05;;
21000;SDS011;10658;50.920;12.238;2024-01-15T17:02:20;4.15;;;2.40;;
21000;SDS011;10658;50.920;12.238;2024-01-15T17:06:21;5.30;;;2.78;;
21000;SDS011;10658;50.920;12.238;2024-01-15T17:10:22;4.70;;;2.45;;
21000;SDS011;10658;50.920;12.238;2024-01-15T17:14:23;3.55;;;1.92;;
21000;SDS011;10658;50.920;12.238;2024-01-15T17:18:23;6.65;;;3.00;;
21000;SDS011;10658;50.920;12.238;2024-01-15T17:22:24;5.30;;;2.00;;
21000;SDS011;10658;50.920;12.238;2024-01-15T17:26:25;4.07;;;2.08;;
21000;SDS011;10658;50.920;12.238;2024-01-15T17:30:25;4.22;;;2.67;;
21000;SDS011;10658;50.920;12.238;2024-01-15T17:34:26;4.28;;;1.77;;
21000;SDS011;10658;50.920;12.238;2024-01-15T17:38:27;4.85;;;1.80;;
21000;SDS011;10658;50.920;12.238;2024-01-15T17:42:28;5.30;;;1.92;;
21000;SDS011;10658;50.920;12.238;2024-01-15T17:46:29;1.52;;;1.40;;
21000;SDS011;10658;50.920;12.238;2024-01-15T17:50:30;2.47;;;2.05;;
21000;SDS011;10658;50.920;12.238;2024-01-15T17:54:32;3.15;;;2.10;;
21000;SDS011;10658;50.920;12.238;2024-01-15T17:58:33;2.38;;;1.63;;
21000;SDS011;10658;50.920;12.238;2024-01-15T18:02:34;3.95;;;2.08;;
21000;SDS011;10658;50.920;12.238;2024-01-15T18:06:35;3.15;;;1.88;;
21000;SDS011;10658;50.920;12.238;2024-01-15T18:10:36;2.58;;;2.00;;
21000;SDS011;10658;50.920;12.238;2024-01-15T18:14:37;4.00;;;1.55;;
21000;SDS011;10658;50.920;12.238;2024-01-15T18:18:38;4.05;;;1.92;;
21000;SDS011;10658;50.920;12.238;2024-01-15T18:22:39;3.17;;;2.15;;
21000;SDS011;10658;50.920;12.238;2024-01-15T18:26:40;3.35;;;2.10;;
21000;SDS011;10658;50.920;12.238;2024-01-15T18:30:41;2.78;;;1.60;;
21000;SDS011;10658;50.920;12.238;2024-01-15T18:34:42;4.30;;;2.35;;
21000;SDS011;10658;50.920;12.238;2024-01-15T18:38:43;4.65;;;2.30;;
21000;SDS011;10658;50.920;12.238;2024-01-15T18:42:44;3.05;;;1.92;;
21000;SDS011;10658;50.920;12.238;2024-01-15T18:46:44;3.10;;;2.00;;
21000;SDS011;10658;50.920;12.238;2024-01-15T18:50:46;2.50;;;1.65;;
21000;SDS011;10658;50.920;12.238;2024-01-15T18:54:48;2.55;;;1.55;;
21000;SDS011;10658;50.920;12.238;2024-01-15T18:58:49;3.03;;;1.85;;
21000;SDS011;10658;50.920;12.238;2024-01-15T19:02:49;2.55;;;1.80;;
21000;SDS011;10658;50.920;12.238;2024-01-15T19:06:52;2.83;;;1.95;;
21000;SDS011;10658;50.920;12.238;2024-01-15T19:10:53;1.75;;;1.40;;
21000;SDS011;10658;50.920;12.238;2024-01-15T19:14:55;3.90;;;2.50;;
21000;SDS011;10658;50.920;12.238;2024-01-15T19:18:56;4.13;;;2.05;;
21000;SDS011;10658;50.920;12.238;2024-01-15T19:22:56;2.30;;;1.02;;
21000;SDS011;10658;50.920;12.238;2024-01-15T19:26:58;3.35;;;1.50;;
21000;SDS011;10658;50.920;12.238;2024-01-15T19:30:59;1.58;;;1.25;;
21000;SDS011;10658;50.920;12.238;2024-01-15T19:35:01;2.45;;;0.90;;
21000;SDS011;10658;50.920;12.238;2024-01-15T19:39:02;1.30;;;1.15;;
21000;SDS011;10658;50.920;12.238;2024-01-15T19:43:03;2.33;;;1.17;;
21000;SDS011;10658;50.920;12.238;2024-01-15T19:47:04;5.05;;;1.65;;
21000;SDS011;10658;50.920;12.238;2024-01-15T19:51:05;2.13;;;1.17;;
21000;SDS011;10658;50.920;12.238;2024-01-15T19:55:06;2.03;;;1.42;;
21000;SDS011;10658;50.920;12.238;2024-01-15T19:59:07;1.60;;;1.05;;
21000;SDS011;10658;50.920;12.238;2024-01-15T20:03:07;1.63;;;1.15;;
21000;SDS011;10658;50.920;12.238;2024-01-15T20:07:08;3.58;;;1.88;;
21000;SDS011;10658;50.920;12.238;2024-01-15T20:11:10;4.45;;;1.27;;
21000;SDS011;10658;50.920;12.238;2024-01-15T20:15:11;1.65;;;1.55;;
21000;SDS011;10658;50.920;12.238;2024-01-15T20:19:12;2.47;;;1.27;;
21000;SDS011;10658;50.920;12.238;2024-01-15T20:23:13;2.33;;;1.23;;
21000;SDS011;10658;50.920;12.238;2024-01-15T20:27:14;3.47;;;1.60;;
21000;SDS011;10658;50.920;12.238;2024-01-15T20:31:16;1.75;;;1.05;;
21000;SDS011;10658;50.920;12.238;2024-01-15T20:35:17;1.85;;;1.13;;
21000;SDS011;10658;50.920;12.238;2024-01-15T20:39:18;1.95;;;0.82;;
21000;SDS011;10658;50.920;12.238;2024-01-15T20:43:20;3.00;;;1.25;;
21000;SDS011;10658;50.920;12.238;2024-01-15T20:47:29;1.55;;;0.90;;
21000;SDS011;10658;50.920;12.238;2024-01-15T20:51:31;2.45;;;1.35;;
21000;SDS011;10658;50.920;12.238;2024-01-15T20:55:32;1.48;;;1.13;;
21000;SDS011;10658;50.920;12.238;2024-01-15T20:59:33;2.05;;;1.35;;
21000;SDS011;10658;50.920;12.238;2024-01-15T21:03:35;2.03;;;1.10;;
21000;SDS011;10658;50.920;12.238;2024-01-15T21:07:36;2.60;;;1.35;;
21000;SDS011;10658;50.920;12.238;2024-01-15T21:11:37;1.80;;;1.38;;
21000;SDS011;10658;50.920;12.238;2024-01-15T21:15:37;2.75;;;1.10;;
21000;SDS011;10658;50.920;12.238;2024-01-15T21:19:38;6.20;;;1.45;;
21000;SDS011;10658;50.920;12.238;2024-01-15T21:23:39;3.25;;;0.85;;
21000;SDS011;10658;50.920;12.238;2024-01-15T21:27:40;2.20;;;1.20;;
21000;SDS011;10658;50.920;12.238;2024-01-15T21:31:41;3.50;;;1.45;;
21000;SDS011;10658;50.920;12.238;2024-01-15T21:35:42;2.78;;;1.23;;
21000;SDS011;10658;50.920;12.238;2024-01-15T21:39:43;3.53;;;1.30;;
21000;SDS011;10658;50.920;12.238;2024-01-15T21:43:44;6.45;;;1.30;;
21000;SDS011;10658;50.920;12.238;2024-01-15T21:47:45;3.55;;;1.30;;
21000;SDS011;10658;50.920;12.238;2024-01-15T21:51:45;2.58;;;1.40;;
21000;SDS011;10658;50.920;12.238;2024-01-15T21:55:46;3.10;;;1.17;;
21000;SDS011;10658;50.920;12.238;2024-01-15T21:59:47;2.13;;;1.92;;
21000;SDS011;10658;50.920;12.238;2024-01-15T22:03:48;4.22;;;1.42;;
21000;SDS011;10658;50.920;12.238;2024-01-15T22:07:49;2.28;;;1.38;;
21000;SDS011;10658;50.920;12.238;2024-01-15T22:11:49;4.18;;;1.63;;
21000;SDS011;10658;50.920;12.238;2024-01-15T22:15:50;1.73;;;1.30;;
21000;SDS011;10658;50.920;12.238;2024-01-15T22:19:51;2.20;;;1.33;;
21000;SDS011;10658;50.920;12.238;2024-01-15T22:23:54;5.00;;;1.42;;
21000;SDS011;10658;50.920;12.238;2024-01-15T22:27:55;2.88;;;1.33;;
21000;SDS011;10658;50.920;12.238;2024-01-15T22:31:56;3.55;;;2.10;;
21000;SDS011;10658;50.920;12.238;2024-01-15T22:35:57;4.70;;;1.35;;
21000;SDS011;10658;50.920;12.238;2024-01-15T22:39:58;3.05;;;1.27;;
21000;SDS011;10658;50.920;12.238;2024-01-15T22:43:58;3.35;;;1.55;;
21000;SDS011;10658;50.920;12.238;2024-01-15T22:47:59;5.57;;;1.30;;
21000;SDS011;10658;50.920;12.238;2024-01-15T22:52:00;4.43;;;1.33;;
21000;SDS011;10658;50.920;12.238;2024-01-15T22:56:01;9.90;;;1.88;;
21000;SDS011;10658;50.920;12.238;2024-01-15T23:00:03;2.40;;;1.15;;
21000;SDS011;10658;50.920;12.238;2024-01-15T23:04:13;1.25;;;1.15;;
21000;SDS011;10658;50.920;12.238;2024-01-15T23:08:14;1.00;;;0.90;;
21000;SDS011;10658;50.920;12.238;2024-01-15T23:12:15;3.47;;;1.65;;
21000;SDS011;10658;50.920;12.238;2024-01-15T23:16:15;5.57;;;1.20;;
21000;SDS011;10658;50.920;12.238;2024-01-15T23:20:16;2.42;;;1.17;;
21000;SDS011;10658;50.920;12.238;2024-01-15T23:24:17;1.75;;;1.25;;
21000;SDS011;10658;50.920;12.238;2024-01-15T23:28:18;1.63;;;1.20;;
21000;SDS011;10658;50.920;12.238;2024-01-15T23:32:18;2.45;;;1.75;;
21000;SDS011;10658;50.920;12.238;2024-01-15T23:36:19;1.95;;;1.38;;
21000;SDS011;10658;50.920;12.238;2024-01-15T23:40:20;2.30;;;1.15;;
21000;SDS011;10658;50.920;12.238;2024-01-15T23:44:21;1.35;;;1.25;;
21000;SDS011;10658;50.920;12.238;2024-01-15T23:48:21;2.70;;;1.48;;
21000;SDS011;10658;50.920;12.238;2024-01-15T23:52:22;1.13;;;0.88;;
21000;SDS011;10658;50.920;12.238;2024-01-15T23:56:23;7.47;;;1.27;;
